createdAt,value
2022-08-17T00:02:14.510Z,20.43
2022-08-17T00:04:53.252Z,20.53
2022-08-17T00:07:19.683Z,20.46
2022-08-17T00:09:46.732Z,20.22
2022-08-17T00:12:43.356Z,20.17
2022-08-17T00:14:59.949Z,20.28
2022-08-17T00:17:26.619Z,20.37
2022-08-17T00:19:53.144Z,20.37
2022-08-17T00:22:33.811Z,20.44
2022-08-17T00:25:08.727Z,20.47
2022-08-17T00:27:35.726Z,20.47
2022-08-17T00:30:03.135Z,20.55
2022-08-17T00:33:11.855Z,20.55
2022-08-17T00:35:19.248Z,20.50
2022-08-17T00:37:45.736Z,20.46
2022-08-17T00:40:14.398Z,20.26
2022-08-17T00:42:41.447Z,20.32
2022-08-17T00:45:10.314Z,20.47
2022-08-17T00:47:36.877Z,20.23
2022-08-17T00:50:06.955Z,20.35
2022-08-17T00:52:38.134Z,20.37
2022-08-17T00:55:06.377Z,20.23
2022-08-17T00:57:36.832Z,20.10
2022-08-17T01:00:18.167Z,20.23
2022-08-17T01:02:46.171Z,20.31
2022-08-17T01:05:18.414Z,20.34
2022-08-17T01:07:46.611Z,20.37
2022-08-17T01:10:58.954Z,20.14
2022-08-17T01:13:02.404Z,20.15
2022-08-17T01:15:35.785Z,20.14
2022-08-17T01:18:03.218Z,20.16
2022-08-17T01:20:29.740Z,20.31
2022-08-17T01:22:56.319Z,20.32
2022-08-17T01:25:22.949Z,20.22
2022-08-17T01:27:49.785Z,20.15
2022-08-17T01:30:58.701Z,20.05
2022-08-17T01:33:04.352Z,19.82
2022-08-17T01:35:30.928Z,19.86
2022-08-17T01:37:57.414Z,19.91
2022-08-17T01:40:36.063Z,19.92
2022-08-17T01:43:12.757Z,20.02
2022-08-17T01:45:43.349Z,19.92
2022-08-17T01:48:10.602Z,19.99
2022-08-17T01:50:40.396Z,20.15
2022-08-17T01:53:19.159Z,19.82
2022-08-17T01:55:48.401Z,19.91
2022-08-17T01:58:15.064Z,19.69
2022-08-17T02:01:00.279Z,19.62
2022-08-17T02:03:29.038Z,19.66
2022-08-17T02:05:56.090Z,19.68
2022-08-17T02:08:38.954Z,19.93
2022-08-17T02:11:11.292Z,19.48
2022-08-17T02:13:38.244Z,19.30
2022-08-17T02:16:04.734Z,19.43
2022-08-17T02:18:31.279Z,19.65
2022-08-17T02:20:57.782Z,19.88
2022-08-17T02:23:26.939Z,19.68
2022-08-17T02:25:54.214Z,19.72
2022-08-17T02:28:20.685Z,19.95
2022-08-17T02:30:59.195Z,20.04
2022-08-17T02:33:42.678Z,20.13
2022-08-17T02:36:11.457Z,20.08
2022-08-17T02:38:38.879Z,20.08
2022-08-17T02:41:05.449Z,19.99
2022-08-17T02:43:31.953Z,19.96
2022-08-17T02:45:58.438Z,19.96
2022-08-17T02:48:31.596Z,20.03
2022-08-17T02:51:01.810Z,19.72
2022-08-17T02:53:35.754Z,19.89
2022-08-17T02:56:03.439Z,19.85
2022-08-17T02:58:35.270Z,19.95
2022-08-17T03:01:04.813Z,19.83
2022-08-17T03:03:31.322Z,19.82
2022-08-17T03:05:57.881Z,19.94
2022-08-17T03:08:25.482Z,19.93
2022-08-17T03:10:52.255Z,19.73
2022-08-17T03:13:18.825Z,19.50
2022-08-17T03:15:46.299Z,19.62
2022-08-17T03:18:19.297Z,19.70
2022-08-17T03:20:51.411Z,19.30
2022-08-17T03:23:18.618Z,18.99
2022-08-17T03:25:50.554Z,18.95
2022-08-17T03:28:20.439Z,19.33
2022-08-17T03:30:46.942Z,19.44
2022-08-17T03:33:13.682Z,19.62
2022-08-17T03:35:40.734Z,19.72
2022-08-17T03:38:09.123Z,19.82
2022-08-17T03:40:56.673Z,19.73
2022-08-17T03:43:23.205Z,19.77
2022-08-17T03:46:10.998Z,19.82
2022-08-17T03:49:13.802Z,19.79
2022-08-17T03:51:58.988Z,19.96
2022-08-17T03:54:44.198Z,20.04
2022-08-17T03:57:11.661Z,19.99
2022-08-17T03:59:38.734Z,19.75
2022-08-17T04:02:18.191Z,19.62
2022-08-17T04:04:44.703Z,19.67
2022-08-17T04:07:11.234Z,19.72
2022-08-17T04:09:37.809Z,19.92
2022-08-17T04:12:05.281Z,19.86
2022-08-17T04:14:39.181Z,19.67
2022-08-17T04:17:19.715Z,19.56
2022-08-17T04:19:46.748Z,19.70
2022-08-17T04:22:32.375Z,19.74
2022-08-17T04:25:00.001Z,19.83
2022-08-17T04:27:27.092Z,19.78
2022-08-17T04:29:55.529Z,19.41
2022-08-17T04:32:59.399Z,19.67
2022-08-17T04:35:09.729Z,19.55
2022-08-17T04:37:36.370Z,19.46
2022-08-17T04:40:21.991Z,19.57
2022-08-17T04:43:01.495Z,19.46
2022-08-17T04:45:31.976Z,19.56
2022-08-17T04:47:59.659Z,19.77
2022-08-17T04:50:26.293Z,19.62
2022-08-17T04:52:52.788Z,19.74
2022-08-17T04:55:19.261Z,19.76
2022-08-17T04:57:45.804Z,19.91
2022-08-17T05:00:12.774Z,19.89
2022-08-17T05:02:49.934Z,19.81
2022-08-17T05:05:26.198Z,19.81
2022-08-17T05:07:57.788Z,19.69
2022-08-17T05:10:26.088Z,19.84
2022-08-17T05:13:10.694Z,19.74
2022-08-17T05:15:39.295Z,19.51
2022-08-17T05:18:11.913Z,19.49
2022-08-17T05:20:39.500Z,19.58
2022-08-17T05:23:09.550Z,19.57
2022-08-17T05:25:40.720Z,19.50
2022-08-17T05:28:08.330Z,19.50
2022-08-17T05:30:35.294Z,19.57
2022-08-17T05:33:05.336Z,19.66
2022-08-17T05:35:34.189Z,19.80
2022-08-17T05:38:01.614Z,19.98
2022-08-17T05:40:32.882Z,19.80
2022-08-17T05:43:16.540Z,19.86
2022-08-17T05:46:20.030Z,20.08
2022-08-17T05:48:50.627Z,19.92
2022-08-17T05:51:35.415Z,20.09
2022-08-17T05:54:13.945Z,20.30
2022-08-17T05:56:43.364Z,20.23
2022-08-17T05:59:18.864Z,20.30
2022-08-17T06:02:16.616Z,20.11
2022-08-17T06:05:07.935Z,19.70
2022-08-17T06:07:54.045Z,20.02
2022-08-17T06:10:30.398Z,20.22
2022-08-17T06:13:03.424Z,20.15
2022-08-17T06:15:49.473Z,20.25
2022-08-17T06:18:19.101Z,20.38
2022-08-17T06:20:50.569Z,20.46
2022-08-17T06:23:25.729Z,20.64
2022-08-17T06:25:56.028Z,20.52
2022-08-17T06:28:38.821Z,20.80
2022-08-17T06:31:15.704Z,20.97
2022-08-17T06:33:46.312Z,21.24
2022-08-17T06:36:25.129Z,21.13
2022-08-17T06:39:16.383Z,21.07
2022-08-17T06:41:56.436Z,21.27
2022-08-17T06:44:42.243Z,21.33
2022-08-17T06:47:44.953Z,21.42
2022-08-17T06:50:20.440Z,21.32
2022-08-17T06:52:51.789Z,21.22
2022-08-17T06:55:26.665Z,21.37
2022-08-17T06:57:57.553Z,21.12
2022-08-17T07:00:28.262Z,21.01
2022-08-17T07:03:03.022Z,20.98
2022-08-17T07:05:38.768Z,21.09
2022-08-17T07:08:37.907Z,21.32
2022-08-17T07:11:13.381Z,21.50
2022-08-17T07:14:02.512Z,21.59
2022-08-17T07:16:41.136Z,21.60
2022-08-17T07:19:08.246Z,21.51
2022-08-17T07:21:50.272Z,21.41
2022-08-17T07:24:35.625Z,21.57
2022-08-17T07:27:04.952Z,21.56
2022-08-17T07:29:33.066Z,21.50
2022-08-17T07:31:59.727Z,21.42
2022-08-17T07:34:29.186Z,21.46
2022-08-17T07:37:05.079Z,21.57
2022-08-17T07:39:31.703Z,21.66
2022-08-17T07:42:03.835Z,21.74
2022-08-17T07:44:30.296Z,21.82
2022-08-17T07:47:15.686Z,21.74
2022-08-17T07:49:47.424Z,21.86
2022-08-17T07:52:51.008Z,21.97
2022-08-17T07:55:29.299Z,22.02
2022-08-17T07:57:57.912Z,22.05
2022-08-17T08:00:31.663Z,21.79
2022-08-17T08:03:26.189Z,21.79
2022-08-17T08:06:02.363Z,21.59
2022-08-17T08:08:42.966Z,21.79
2022-08-17T08:11:12.472Z,21.97
2022-08-17T08:13:43.798Z,21.98
2022-08-17T08:16:29.522Z,22.01
2022-08-17T08:19:01.298Z,22.04
2022-08-17T08:21:36.834Z,22.09
2022-08-17T08:24:31.369Z,21.87
2022-08-17T08:27:27.075Z,21.98
2022-08-17T08:29:59.602Z,22.04
2022-08-17T08:32:32.057Z,22.09
2022-08-17T08:35:22.721Z,22.49
2022-08-17T08:38:12.055Z,22.51
2022-08-17T08:41:14.019Z,23.26
2022-08-17T08:44:00.668Z,23.60
2022-08-17T08:46:35.326Z,23.71
2022-08-17T08:49:39.057Z,24.01
2022-08-17T08:52:31.135Z,24.10
2022-08-17T08:55:10.204Z,24.28
2022-08-17T08:57:41.118Z,24.58
2022-08-17T09:00:15.161Z,24.84
2022-08-17T09:03:14.167Z,24.45
2022-08-17T09:05:53.400Z,24.01
2022-08-17T09:08:35.063Z,23.96
2022-08-17T09:11:31.703Z,23.78
2022-08-17T09:14:28.324Z,24.06
2022-08-17T09:16:55.243Z,24.33
2022-08-17T09:19:30.429Z,24.56
2022-08-17T09:22:17.487Z,24.58
2022-08-17T09:24:48.898Z,25.13
2022-08-17T09:27:18.282Z,25.34
2022-08-17T09:29:59.488Z,24.81
2022-08-17T09:32:38.386Z,24.42
2022-08-17T09:35:22.896Z,25.07
2022-08-17T09:38:08.185Z,25.23
2022-08-17T09:40:47.614Z,25.54
2022-08-17T09:43:46.445Z,25.85
2022-08-17T09:46:17.211Z,25.91
2022-08-17T09:48:55.239Z,25.59
2022-08-17T09:51:25.125Z,26.04
2022-08-17T09:53:51.774Z,25.60
2022-08-17T09:56:24.441Z,25.37
2022-08-17T09:59:17.021Z,25.63
2022-08-17T10:01:50.419Z,25.38
2022-08-17T10:04:29.517Z,25.06
2022-08-17T10:07:07.494Z,25.86
2022-08-17T10:09:49.817Z,25.65
2022-08-17T10:12:47.072Z,25.87
2022-08-17T10:15:33.468Z,25.35
2022-08-17T10:18:30.515Z,26.18
2022-08-17T10:21:29.654Z,26.30
2022-08-17T10:25:01.857Z,26.17
2022-08-17T10:27:42.237Z,26.24
2022-08-17T10:30:10.888Z,26.60
2022-08-17T10:32:55.753Z,25.56
2022-08-17T10:35:28.195Z,26.02
2022-08-17T10:38:16.579Z,26.43
2022-08-17T10:41:05.826Z,26.79
2022-08-17T10:43:32.963Z,26.70
2022-08-17T10:46:30.681Z,26.91
2022-08-17T10:49:21.168Z,27.24
2022-08-17T10:51:49.224Z,27.60
2022-08-17T10:54:24.720Z,27.01
2022-08-17T10:56:53.357Z,27.24
2022-08-17T10:59:35.185Z,26.75
2022-08-17T11:02:04.809Z,27.02
2022-08-17T11:04:34.257Z,27.03
2022-08-17T11:07:43.690Z,27.16
2022-08-17T11:10:51.975Z,27.66
2022-08-17T11:13:48.417Z,27.63
2022-08-17T11:16:17.791Z,27.47
2022-08-17T11:19:11.983Z,27.34
2022-08-17T11:22:10.845Z,27.97
2022-08-17T11:24:48.331Z,28.42
2022-08-17T11:27:31.140Z,28.65
2022-08-17T11:30:02.728Z,28.00
2022-08-17T11:32:37.232Z,28.03
2022-08-17T11:35:23.653Z,28.40
2022-08-17T11:38:06.386Z,28.84
2022-08-17T11:40:54.697Z,28.40
2022-08-17T11:43:42.949Z,28.91
2022-08-17T11:47:00.759Z,29.30
2022-08-17T11:49:59.518Z,29.26
2022-08-17T11:52:41.074Z,29.44
2022-08-17T11:55:39.358Z,28.99
2022-08-17T11:58:37.297Z,29.33
2022-08-17T12:01:12.334Z,29.53
2022-08-17T12:03:55.629Z,28.96
2022-08-17T12:06:43.559Z,29.31
2022-08-17T12:09:19.553Z,29.84
2022-08-17T12:12:12.348Z,28.40
2022-08-17T12:15:08.906Z,29.12
2022-08-17T12:17:41.133Z,28.34
2022-08-17T12:20:16.242Z,28.70
2022-08-17T12:22:53.433Z,29.19
2022-08-17T12:25:38.114Z,28.27
2022-08-17T12:28:19.913Z,28.64
2022-08-17T12:30:52.157Z,28.87
2022-08-17T12:33:25.500Z,29.22
2022-08-17T12:36:16.505Z,29.51
2022-08-17T12:38:51.568Z,29.94
2022-08-17T12:41:38.936Z,29.30
2022-08-17T12:44:12.116Z,29.56
2022-08-17T12:47:25.474Z,29.52
2022-08-17T12:50:29.134Z,29.80
2022-08-17T12:53:01.160Z,29.84
2022-08-17T12:55:29.455Z,30.11
2022-08-17T12:58:01.818Z,29.39
2022-08-17T13:00:28.709Z,30.03
2022-08-17T13:03:01.155Z,30.31
2022-08-17T13:05:36.815Z,29.79
2022-08-17T13:08:19.845Z,30.04
2022-08-17T13:11:01.837Z,30.43
2022-08-17T13:13:33.218Z,30.45
2022-08-17T13:16:30.172Z,29.83
2022-08-17T13:19:09.573Z,30.33
2022-08-17T13:21:37.858Z,30.62
2022-08-17T13:24:11.218Z,30.31
2022-08-17T13:26:42.124Z,30.15
2022-08-17T13:29:16.614Z,30.26
2022-08-17T13:31:52.388Z,30.41
2022-08-17T13:34:26.618Z,29.41
2022-08-17T13:37:27.081Z,29.69
2022-08-17T13:39:56.394Z,29.30
2022-08-17T13:42:52.381Z,29.53
2022-08-17T13:45:36.140Z,29.64
2022-08-17T13:48:21.730Z,29.88
2022-08-17T13:50:54.358Z,29.72
2022-08-17T13:53:34.278Z,29.67
2022-08-17T13:56:37.047Z,30.13
2022-08-17T13:59:08.785Z,30.57
2022-08-17T14:01:39.142Z,30.72
2022-08-17T14:04:08.793Z,30.38
2022-08-17T14:07:04.866Z,30.66
2022-08-17T14:09:37.446Z,30.34
2022-08-17T14:12:08.497Z,30.63
2022-08-17T14:14:35.269Z,30.36
2022-08-17T14:17:05.178Z,30.67
2022-08-17T14:19:34.327Z,29.78
2022-08-17T14:22:01.089Z,29.89
2022-08-17T14:24:33.410Z,29.55
2022-08-17T14:27:01.130Z,29.63
2022-08-17T14:29:29.686Z,30.22
2022-08-17T14:31:56.884Z,30.50
2022-08-17T14:34:24.189Z,30.55
2022-08-17T14:36:51.557Z,30.30
2022-08-17T14:39:18.465Z,30.61
2022-08-17T14:41:45.361Z,30.87
2022-08-17T14:44:12.498Z,30.97
2022-08-17T14:46:40.871Z,31.07
2022-08-17T14:49:08.541Z,30.89
2022-08-17T14:51:43.566Z,31.05
2022-08-17T14:54:10.970Z,30.99
2022-08-17T14:56:38.655Z,30.86
2022-08-17T14:59:05.170Z,30.21
2022-08-17T15:01:32.149Z,30.02
2022-08-17T15:03:59.406Z,30.07
2022-08-17T15:06:25.859Z,29.89
2022-08-17T15:08:52.969Z,29.69
2022-08-17T15:11:19.655Z,29.90
2022-08-17T15:13:52.919Z,30.13
2022-08-17T15:16:20.625Z,29.78
2022-08-17T15:21:15.853Z,30.15
2022-08-17T15:23:43.621Z,30.00
2022-08-17T15:26:11.078Z,30.14
2022-08-17T15:28:37.773Z,29.66
2022-08-17T15:31:06.074Z,29.92
2022-08-17T15:33:32.823Z,29.94
2022-08-17T15:36:03.693Z,29.58
2022-08-17T15:38:35.372Z,29.78
2022-08-17T15:41:01.984Z,29.61
2022-08-17T15:43:32.467Z,29.75
2022-08-17T15:46:00.749Z,29.97
2022-08-17T15:48:41.090Z,30.13
2022-08-17T15:51:17.623Z,30.24
2022-08-17T15:54:18.898Z,30.22
2022-08-17T15:56:49.509Z,30.31
2022-08-17T15:59:15.989Z,30.51
2022-08-17T16:03:15.925Z,30.39
2022-08-17T16:04:30.942Z,30.65
2022-08-17T16:06:59.284Z,30.72
2022-08-17T16:09:25.759Z,30.19
2022-08-17T16:11:55.130Z,30.34
2022-08-17T16:14:22.599Z,29.95
2022-08-17T16:16:50.628Z,29.99
2022-08-17T16:19:17.218Z,29.67
2022-08-17T16:21:43.698Z,29.64
2022-08-17T16:24:12.829Z,29.87
2022-08-17T16:26:40.038Z,29.64
2022-08-17T16:29:07.177Z,29.90
2022-08-17T16:31:33.912Z,29.45
2022-08-17T16:34:17.304Z,29.79
2022-08-17T16:36:51.867Z,29.48
2022-08-17T16:39:25.120Z,29.59
2022-08-17T16:41:51.595Z,29.55
2022-08-17T16:44:22.522Z,29.77
2022-08-17T16:46:50.080Z,29.72
2022-08-17T16:49:35.281Z,29.80
2022-08-17T16:52:10.462Z,30.09
2022-08-17T16:54:39.286Z,29.67
2022-08-17T16:57:05.809Z,29.38
2022-08-17T16:59:40.258Z,29.26
2022-08-17T17:02:12.492Z,29.27
2022-08-17T17:04:45.943Z,29.27
2022-08-17T17:07:51.144Z,29.28
2022-08-17T17:10:23.098Z,29.21
2022-08-17T17:13:02.342Z,29.27
2022-08-17T17:15:39.753Z,29.15
2022-08-17T17:18:09.087Z,29.27
2022-08-17T17:20:48.637Z,29.19
2022-08-17T17:23:21.148Z,29.29
2022-08-17T17:26:05.639Z,29.22
2022-08-17T17:28:56.388Z,29.14
2022-08-17T17:31:25.617Z,29.15
2022-08-17T17:33:56.720Z,29.21
2022-08-17T17:36:28.535Z,29.12
2022-08-17T17:39:00.553Z,29.07
2022-08-17T17:41:34.491Z,29.07
2022-08-17T17:44:13.594Z,29.09
2022-08-17T17:46:49.262Z,28.97
2022-08-17T17:49:18.058Z,29.05
2022-08-17T17:52:10.955Z,29.02
2022-08-17T17:55:03.016Z,28.81
2022-08-17T17:57:35.672Z,28.74
2022-08-17T18:00:14.238Z,28.69
2022-08-17T18:02:51.976Z,28.76
2022-08-17T18:05:44.645Z,28.70
2022-08-17T18:08:33.843Z,28.72
2022-08-17T18:11:00.877Z,28.66
2022-08-17T18:13:43.454Z,28.54
2022-08-17T18:16:13.945Z,28.51
2022-08-17T18:18:44.562Z,28.49
2022-08-17T18:21:23.491Z,28.50
2022-08-17T18:23:58.079Z,28.43
2022-08-17T18:26:40.148Z,28.33
2022-08-17T18:29:31.636Z,28.26
2022-08-17T18:32:24.299Z,28.22
2022-08-17T18:35:00.316Z,28.16
2022-08-17T18:37:37.781Z,27.99
2022-08-17T18:40:16.567Z,28.04
2022-08-17T18:42:45.758Z,27.94
2022-08-17T18:45:13.130Z,27.93
2022-08-17T18:47:59.973Z,27.91
2022-08-17T18:50:34.299Z,27.84
2022-08-17T18:53:26.607Z,27.78
2022-08-17T18:56:27.894Z,27.76
2022-08-17T18:59:16.787Z,27.74
2022-08-17T19:01:53.381Z,27.49
2022-08-17T19:04:36.757Z,27.51
2022-08-17T19:07:24.579Z,27.33
2022-08-17T19:09:56.528Z,27.28
2022-08-17T19:12:29.169Z,27.29
2022-08-17T19:14:56.701Z,27.13
2022-08-17T19:17:32.068Z,27.21
2022-08-17T19:20:15.947Z,27.13
2022-08-17T19:22:51.060Z,27.06
2022-08-17T19:25:23.571Z,27.03
2022-08-17T19:28:00.030Z,26.98
2022-08-17T19:30:27.806Z,26.92
2022-08-17T19:32:55.797Z,26.77
2022-08-17T19:35:26.856Z,26.85
2022-08-17T19:38:13.329Z,26.77
2022-08-17T19:40:52.627Z,26.80
2022-08-17T19:43:58.425Z,26.73
2022-08-17T19:46:36.766Z,26.55
2022-08-17T19:49:05.727Z,26.47
2022-08-17T19:51:44.643Z,26.39
2022-08-17T19:54:23.359Z,26.31
2022-08-17T19:57:17.042Z,26.29
2022-08-17T19:59:48.964Z,26.37
2022-08-17T20:02:20.696Z,26.13
2022-08-17T20:04:49.731Z,25.95
2022-08-17T20:07:24.208Z,25.93
2022-08-17T20:09:55.889Z,25.88
2022-08-17T20:12:36.232Z,25.90
2022-08-17T20:15:10.925Z,25.80
2022-08-17T20:17:40.796Z,25.89
2022-08-17T20:20:38.485Z,25.71
2022-08-17T20:23:29.358Z,25.52
2022-08-17T20:26:20.270Z,25.57
2022-08-17T20:29:20.246Z,25.34
2022-08-17T20:32:04.534Z,25.41
2022-08-17T20:34:38.078Z,25.28
2022-08-17T20:37:26.441Z,25.29
2022-08-17T20:39:52.866Z,25.08
2022-08-17T20:42:22.069Z,25.12
2022-08-17T20:44:51.119Z,25.22
2022-08-17T20:47:27.167Z,24.97
2022-08-17T20:50:00.370Z,25.06
2022-08-17T20:52:35.785Z,25.13
2022-08-17T20:55:04.412Z,25.02
2022-08-17T20:57:31.216Z,24.71
2022-08-17T21:00:15.314Z,24.61
2022-08-17T21:02:49.959Z,24.33
2022-08-17T21:05:34.217Z,24.38
2022-08-17T21:08:13.010Z,24.42
2022-08-17T21:10:40.859Z,24.34
2022-08-17T21:13:13.930Z,24.44
2022-08-17T21:15:42.227Z,24.22
2022-08-17T21:18:16.554Z,24.23
2022-08-17T21:20:59.719Z,24.08
2022-08-17T21:24:00.220Z,23.95
2022-08-17T21:26:30.775Z,24.01
2022-08-17T21:29:31.286Z,23.99
2022-08-17T21:32:05.545Z,24.03
2022-08-17T21:34:42.479Z,24.11
2022-08-17T21:37:24.193Z,24.14
2022-08-17T21:39:54.513Z,24.25
2022-08-17T21:42:31.253Z,24.03
2022-08-17T21:45:08.295Z,24.02
2022-08-17T21:47:34.964Z,23.77
2022-08-17T21:50:21.371Z,23.77
2022-08-17T21:52:49.955Z,23.80
2022-08-17T21:55:29.987Z,23.63
2022-08-17T21:58:14.655Z,23.80
2022-08-17T22:00:44.356Z,23.61
2022-08-17T22:03:23.915Z,23.40
2022-08-17T22:05:51.227Z,23.41
2022-08-17T22:08:20.435Z,23.50
2022-08-17T22:10:51.316Z,23.33
2022-08-17T22:13:17.891Z,23.36
2022-08-17T22:15:50.728Z,23.34
2022-08-17T22:18:21.835Z,23.33
2022-08-17T22:20:54.956Z,23.34
2022-08-17T22:24:00.889Z,23.15
2022-08-17T22:26:59.357Z,22.97
2022-08-17T22:29:56.928Z,23.24
2022-08-17T22:32:38.251Z,23.43
2022-08-17T22:35:37.248Z,23.49
2022-08-17T22:38:18.965Z,23.45
2022-08-17T22:40:47.314Z,23.13
2022-08-17T22:43:13.773Z,23.00
2022-08-17T22:45:44.826Z,23.08
2022-08-17T22:48:11.671Z,22.93
2022-08-17T22:50:38.155Z,23.05
2022-08-17T22:53:33.521Z,22.98
2022-08-17T22:56:18.614Z,22.94
2022-08-17T22:59:16.826Z,22.50
2022-08-17T23:01:46.082Z,22.30
2022-08-17T23:04:31.287Z,22.47
2022-08-17T23:06:57.773Z,22.73
2022-08-17T23:09:24.281Z,22.86
2022-08-17T23:11:53.335Z,22.59
2022-08-17T23:14:20.779Z,22.65
2022-08-17T23:16:50.077Z,22.71
2022-08-17T23:19:19.096Z,22.80
2022-08-17T23:21:46.155Z,22.80
2022-08-17T23:24:17.990Z,22.81
2022-08-17T23:26:44.507Z,22.86
2022-08-17T23:29:11.029Z,22.97
2022-08-17T23:31:38.516Z,22.52
2022-08-17T23:34:09.114Z,22.64
2022-08-17T23:36:35.824Z,22.71
2022-08-17T23:39:02.273Z,22.60
2022-08-17T23:41:31.872Z,22.67
2022-08-17T23:43:58.994Z,22.63
2022-08-17T23:46:25.447Z,22.68
2022-08-17T23:48:53.922Z,22.47
2022-08-17T23:51:25.626Z,22.21
2022-08-17T23:53:58.422Z,22.33
2022-08-17T23:56:25.792Z,22.06
2022-08-17T23:58:54.684Z,22.21
